sensor_id;sensor_type;location;lat;lon;timestamp;P1;durP1;ratioP1;P2;durP2;ratioP2
70169;SDS011;57543;45.442;9.212;2023-02-28T00:01:59;15.30;;;7.43;;
70169;SDS011;57543;45.442;9.212;2023-02-28T00:05:03;14.38;;;6.90;;
70169;SDS011;57543;45.442;9.212;2023-02-28T00:08:08;12.90;;;7.03;;
70169;SDS011;57543;45.442;9.212;2023-02-28T00:11:13;13.63;;;6.47;;
70169;SDS011;57543;45.442;9.212;2023-02-28T00:14:17;13.38;;;6.95;;
70169;SDS011;57543;45.442;9.212;2023-02-28T00:17:20;13.40;;;6.87;;
70169;SDS011;57543;45.442;9.212;2023-02-28T00:20:25;11.70;;;6.95;;
70169;SDS011;57543;45.442;9.212;2023-02-28T00:23:30;12.07;;;6.60;;
70169;SDS011;57543;45.442;9.212;2023-02-28T00:26:34;13.23;;;7.00;;
70169;SDS011;57543;45.442;9.212;2023-02-28T00:29:38;10.73;;;6.45;;
70169;SDS011;57543;45.442;9.212;2023-02-28T00:32:42;14.63;;;7.03;;
70169;SDS011;57543;45.442;9.212;2023-02-28T00:35:45;12.95;;;6.70;;
70169;SDS011;57543;45.442;9.212;2023-02-28T00:38:50;13.85;;;6.93;;
70169;SDS011;57543;45.442;9.212;2023-02-28T00:41:54;13.98;;;6.50;;
70169;SDS011;57543;45.442;9.212;2023-02-28T00:44:58;12.07;;;6.85;;
70169;SDS011;57543;45.442;9.212;2023-02-28T00:48:01;13.77;;;7.33;;
70169;SDS011;57543;45.442;9.212;2023-02-28T00:51:05;12.80;;;6.28;;
70169;SDS011;57543;45.442;9.212;2023-02-28T00:54:09;12.82;;;5.82;;
70169;SDS011;57543;45.442;9.212;2023-02-28T00:57:13;13.10;;;6.40;;
70169;SDS011;57543;45.442;9.212;2023-02-28T01:00:17;13.30;;;6.43;;
70169;SDS011;57543;45.442;9.212;2023-02-28T01:03:21;10.83;;;6.00;;
70169;SDS011;57543;45.442;9.212;2023-02-28T01:06:26;11.90;;;6.22;;
70169;SDS011;57543;45.442;9.212;2023-02-28T01:09:29;11.85;;;6.20;;
70169;SDS011;57543;45.442;9.212;2023-02-28T01:12:33;12.98;;;6.60;;
70169;SDS011;57543;45.442;9.212;2023-02-28T01:15:37;12.05;;;6.38;;
70169;SDS011;57543;45.442;9.212;2023-02-28T01:18:43;12.50;;;6.13;;
70169;SDS011;57543;45.442;9.212;2023-02-28T01:21:47;11.82;;;6.00;;
70169;SDS011;57543;45.442;9.212;2023-02-28T01:24:50;11.35;;;6.32;;
70169;SDS011;57543;45.442;9.212;2023-02-28T01:27:54;12.48;;;6.28;;
70169;SDS011;57543;45.442;9.212;2023-02-28T01:30:58;12.20;;;6.28;;
70169;SDS011;57543;45.442;9.212;2023-02-28T01:34:02;13.80;;;6.47;;
70169;SDS011;57543;45.442;9.212;2023-02-28T01:37:06;12.32;;;6.28;;
70169;SDS011;57543;45.442;9.212;2023-02-28T01:40:10;14.20;;;7.28;;
70169;SDS011;57543;45.442;9.212;2023-02-28T01:43:31;13.80;;;6.68;;
70169;SDS011;57543;45.442;9.212;2023-02-28T01:46:49;13.40;;;6.00;;
70169;SDS011;57543;45.442;9.212;2023-02-28T01:49:52;14.17;;;6.60;;
70169;SDS011;57543;45.442;9.212;2023-02-28T01:52:56;12.80;;;6.53;;
70169;SDS011;57543;45.442;9.212;2023-02-28T01:56:04;13.55;;;6.97;;
70169;SDS011;57543;45.442;9.212;2023-02-28T01:59:10;12.30;;;6.43;;
70169;SDS011;57543;45.442;9.212;2023-02-28T02:02:18;13.10;;;6.97;;
70169;SDS011;57543;45.442;9.212;2023-02-28T02:05:24;13.13;;;6.77;;
70169;SDS011;57543;45.442;9.212;2023-02-28T02:08:30;13.95;;;6.40;;
70169;SDS011;57543;45.442;9.212;2023-02-28T02:11:33;11.50;;;5.95;;
70169;SDS011;57543;45.442;9.212;2023-02-28T02:18:26;12.35;;;6.10;;
70169;SDS011;57543;45.442;9.212;2023-02-28T02:31:50;11.65;;;6.13;;
70169;SDS011;57543;45.442;9.212;2023-02-28T02:35:18;12.20;;;6.60;;
70169;SDS011;57543;45.442;9.212;2023-02-28T02:38:48;14.13;;;6.83;;
70169;SDS011;57543;45.442;9.212;2023-02-28T02:41:56;14.02;;;6.70;;
70169;SDS011;57543;45.442;9.212;2023-02-28T02:45:06;13.88;;;6.53;;
70169;SDS011;57543;45.442;9.212;2023-02-28T02:48:19;11.52;;;6.30;;
70169;SDS011;57543;45.442;9.212;2023-02-28T02:51:26;11.40;;;6.45;;
70169;SDS011;57543;45.442;9.212;2023-02-28T02:54:35;11.57;;;5.93;;
70169;SDS011;57543;45.442;9.212;2023-02-28T02:57:46;12.18;;;6.25;;
70169;SDS011;57543;45.442;9.212;2023-02-28T03:01:05;13.20;;;6.30;;
70169;SDS011;57543;45.442;9.212;2023-02-28T03:04:14;11.25;;;5.97;;
70169;SDS011;57543;45.442;9.212;2023-02-28T03:07:21;15.32;;;6.90;;
70169;SDS011;57543;45.442;9.212;2023-02-28T03:10:36;11.97;;;6.67;;
70169;SDS011;57543;45.442;9.212;2023-02-28T03:13:51;14.07;;;6.18;;
70169;SDS011;57543;45.442;9.212;2023-02-28T03:17:21;11.48;;;6.30;;
70169;SDS011;57543;45.442;9.212;2023-02-28T03:20:47;11.73;;;6.22;;
70169;SDS011;57543;45.442;9.212;2023-02-28T03:24:05;11.95;;;6.15;;
70169;SDS011;57543;45.442;9.212;2023-02-28T03:30:22;11.73;;;5.82;;
70169;SDS011;57543;45.442;9.212;2023-02-28T03:33:34;13.43;;;6.85;;
70169;SDS011;57543;45.442;9.212;2023-02-28T03:36:46;11.57;;;6.78;;
70169;SDS011;57543;45.442;9.212;2023-02-28T03:40:01;13.00;;;6.50;;
70169;SDS011;57543;45.442;9.212;2023-02-28T03:43:12;10.87;;;5.87;;
70169;SDS011;57543;45.442;9.212;2023-02-28T03:46:22;11.00;;;6.07;;
70169;SDS011;57543;45.442;9.212;2023-02-28T03:49:32;12.02;;;6.10;;
70169;SDS011;57543;45.442;9.212;2023-02-28T03:52:44;12.18;;;6.50;;
70169;SDS011;57543;45.442;9.212;2023-02-28T03:55:54;11.57;;;6.43;;
70169;SDS011;57543;45.442;9.212;2023-02-28T03:59:04;12.50;;;6.60;;
70169;SDS011;57543;45.442;9.212;2023-02-28T04:02:13;10.43;;;6.05;;
70169;SDS011;57543;45.442;9.212;2023-02-28T04:05:17;11.40;;;6.60;;
70169;SDS011;57543;45.442;9.212;2023-02-28T04:08:21;16.05;;;6.30;;
70169;SDS011;57543;45.442;9.212;2023-02-28T04:11:35;11.55;;;6.57;;
70169;SDS011;57543;45.442;9.212;2023-02-28T04:14:43;13.87;;;6.90;;
70169;SDS011;57543;45.442;9.212;2023-02-28T04:17:47;10.20;;;6.38;;
70169;SDS011;57543;45.442;9.212;2023-02-28T04:20:50;14.40;;;6.18;;
70169;SDS011;57543;45.442;9.212;2023-02-28T04:23:54;11.70;;;6.15;;
70169;SDS011;57543;45.442;9.212;2023-02-28T04:26:59;12.45;;;6.57;;
70169;SDS011;57543;45.442;9.212;2023-02-28T04:30:02;11.10;;;5.60;;
70169;SDS011;57543;45.442;9.212;2023-02-28T04:33:06;11.05;;;6.35;;
70169;SDS011;57543;45.442;9.212;2023-02-28T04:36:10;11.88;;;6.68;;
70169;SDS011;57543;45.442;9.212;2023-02-28T04:39:14;12.63;;;6.75;;
70169;SDS011;57543;45.442;9.212;2023-02-28T04:42:19;13.63;;;6.80;;
70169;SDS011;57543;45.442;9.212;2023-02-28T04:45:22;12.60;;;6.53;;
70169;SDS011;57543;45.442;9.212;2023-02-28T04:48:29;12.18;;;6.60;;
70169;SDS011;57543;45.442;9.212;2023-02-28T04:51:35;11.80;;;6.68;;
70169;SDS011;57543;45.442;9.212;2023-02-28T04:54:38;13.73;;;6.15;;
70169;SDS011;57543;45.442;9.212;2023-02-28T04:57:42;12.55;;;6.55;;
70169;SDS011;57543;45.442;9.212;2023-02-28T05:00:45;12.13;;;6.73;;
70169;SDS011;57543;45.442;9.212;2023-02-28T05:03:49;12.87;;;6.23;;
70169;SDS011;57543;45.442;9.212;2023-02-28T05:06:54;10.73;;;5.90;;
70169;SDS011;57543;45.442;9.212;2023-02-28T05:09:58;13.27;;;6.60;;
70169;SDS011;57543;45.442;9.212;2023-02-28T05:13:02;12.07;;;6.03;;
70169;SDS011;57543;45.442;9.212;2023-02-28T05:16:06;12.63;;;7.07;;
70169;SDS011;57543;45.442;9.212;2023-02-28T05:19:09;12.35;;;6.60;;
70169;SDS011;57543;45.442;9.212;2023-02-28T05:22:14;15.63;;;6.65;;
70169;SDS011;57543;45.442;9.212;2023-02-28T05:25:20;14.15;;;6.90;;
70169;SDS011;57543;45.442;9.212;2023-02-28T05:28:25;12.45;;;6.47;;
70169;SDS011;57543;45.442;9.212;2023-02-28T05:31:29;10.80;;;6.07;;
70169;SDS011;57543;45.442;9.212;2023-02-28T05:34:32;14.88;;;6.95;;
70169;SDS011;57543;45.442;9.212;2023-02-28T05:37:37;12.90;;;6.85;;
70169;SDS011;57543;45.442;9.212;2023-02-28T05:40:41;10.60;;;6.13;;
70169;SDS011;57543;45.442;9.212;2023-02-28T05:43:45;10.82;;;6.97;;
70169;SDS011;57543;45.442;9.212;2023-02-28T05:46:48;11.83;;;6.77;;
70169;SDS011;57543;45.442;9.212;2023-02-28T05:49:53;12.48;;;6.68;;
70169;SDS011;57543;45.442;9.212;2023-02-28T05:52:56;13.52;;;7.15;;
70169;SDS011;57543;45.442;9.212;2023-02-28T05:56:00;12.73;;;6.65;;
70169;SDS011;57543;45.442;9.212;2023-02-28T05:59:04;12.95;;;6.75;;
70169;SDS011;57543;45.442;9.212;2023-02-28T06:02:12;13.40;;;7.00;;
70169;SDS011;57543;45.442;9.212;2023-02-28T06:05:17;13.35;;;7.68;;
70169;SDS011;57543;45.442;9.212;2023-02-28T06:08:21;12.82;;;7.07;;
70169;SDS011;57543;45.442;9.212;2023-02-28T06:11:25;14.75;;;6.90;;
70169;SDS011;57543;45.442;9.212;2023-02-28T06:14:30;11.13;;;6.63;;
70169;SDS011;57543;45.442;9.212;2023-02-28T06:17:35;12.40;;;7.50;;
70169;SDS011;57543;45.442;9.212;2023-02-28T06:20:38;13.20;;;7.13;;
70169;SDS011;57543;45.442;9.212;2023-02-28T06:23:42;11.90;;;6.68;;
70169;SDS011;57543;45.442;9.212;2023-02-28T06:26:46;15.45;;;7.80;;
70169;SDS011;57543;45.442;9.212;2023-02-28T06:29:53;13.48;;;7.70;;
70169;SDS011;57543;45.442;9.212;2023-02-28T06:32:57;13.63;;;7.17;;
70169;SDS011;57543;45.442;9.212;2023-02-28T06:36:00;12.30;;;7.05;;
70169;SDS011;57543;45.442;9.212;2023-02-28T06:39:05;13.90;;;7.57;;
70169;SDS011;57543;45.442;9.212;2023-02-28T06:42:10;15.48;;;8.57;;
70169;SDS011;57543;45.442;9.212;2023-02-28T06:45:13;14.93;;;8.65;;
70169;SDS011;57543;45.442;9.212;2023-02-28T06:48:17;15.80;;;7.93;;
70169;SDS011;57543;45.442;9.212;2023-02-28T06:51:21;12.18;;;6.70;;
70169;SDS011;57543;45.442;9.212;2023-02-28T06:54:25;16.15;;;8.05;;
70169;SDS011;57543;45.442;9.212;2023-02-28T06:57:31;14.13;;;7.53;;
70169;SDS011;57543;45.442;9.212;2023-02-28T07:00:35;15.38;;;8.05;;
70169;SDS011;57543;45.442;9.212;2023-02-28T07:03:39;14.20;;;7.13;;
70169;SDS011;57543;45.442;9.212;2023-02-28T07:06:42;12.45;;;7.60;;
70169;SDS011;57543;45.442;9.212;2023-02-28T07:09:46;16.70;;;7.90;;
70169;SDS011;57543;45.442;9.212;2023-02-28T07:12:50;15.35;;;7.68;;
70169;SDS011;57543;45.442;9.212;2023-02-28T07:19:02;11.93;;;6.93;;
70169;SDS011;57543;45.442;9.212;2023-02-28T07:22:06;14.43;;;7.55;;
70169;SDS011;57543;45.442;9.212;2023-02-28T07:25:10;17.05;;;7.68;;
70169;SDS011;57543;45.442;9.212;2023-02-28T07:28:14;13.52;;;7.10;;
70169;SDS011;57543;45.442;9.212;2023-02-28T07:31:18;17.17;;;8.18;;
70169;SDS011;57543;45.442;9.212;2023-02-28T07:34:22;12.87;;;6.90;;
70169;SDS011;57543;45.442;9.212;2023-02-28T07:37:26;13.55;;;7.13;;
70169;SDS011;57543;45.442;9.212;2023-02-28T07:40:30;14.75;;;7.38;;
70169;SDS011;57543;45.442;9.212;2023-02-28T07:43:33;15.77;;;7.10;;
70169;SDS011;57543;45.442;9.212;2023-02-28T07:46:37;15.55;;;8.18;;
70169;SDS011;57543;45.442;9.212;2023-02-28T07:49:42;13.93;;;7.90;;
70169;SDS011;57543;45.442;9.212;2023-02-28T07:52:45;13.98;;;7.20;;
70169;SDS011;57543;45.442;9.212;2023-02-28T07:55:49;15.52;;;7.82;;
70169;SDS011;57543;45.442;9.212;2023-02-28T07:58:52;14.90;;;7.45;;
70169;SDS011;57543;45.442;9.212;2023-02-28T08:01:57;14.02;;;7.40;;
70169;SDS011;57543;45.442;9.212;2023-02-28T08:05:01;14.87;;;7.57;;
70169;SDS011;57543;45.442;9.212;2023-02-28T08:08:05;13.52;;;7.60;;
70169;SDS011;57543;45.442;9.212;2023-02-28T08:11:10;14.90;;;7.57;;
70169;SDS011;57543;45.442;9.212;2023-02-28T08:14:14;13.43;;;7.32;;
70169;SDS011;57543;45.442;9.212;2023-02-28T08:17:17;16.52;;;7.60;;
70169;SDS011;57543;45.442;9.212;2023-02-28T08:20:21;12.83;;;7.13;;
70169;SDS011;57543;45.442;9.212;2023-02-28T08:23:25;13.23;;;7.40;;
70169;SDS011;57543;45.442;9.212;2023-02-28T08:26:29;14.88;;;7.55;;
70169;SDS011;57543;45.442;9.212;2023-02-28T08:29:32;13.45;;;7.05;;
70169;SDS011;57543;45.442;9.212;2023-02-28T08:32:35;14.68;;;7.38;;
70169;SDS011;57543;45.442;9.212;2023-02-28T08:35:41;15.10;;;7.90;;
70169;SDS011;57543;45.442;9.212;2023-02-28T08:38:45;16.90;;;7.38;;
70169;SDS011;57543;45.442;9.212;2023-02-28T08:41:49;12.48;;;6.82;;
70169;SDS011;57543;45.442;9.212;2023-02-28T08:44:52;12.73;;;6.93;;
70169;SDS011;57543;45.442;9.212;2023-02-28T08:47:56;15.95;;;8.48;;
70169;SDS011;57543;45.442;9.212;2023-02-28T08:51:01;14.00;;;7.60;;
70169;SDS011;57543;45.442;9.212;2023-02-28T08:54:07;14.77;;;7.90;;
70169;SDS011;57543;45.442;9.212;2023-02-28T08:57:11;14.55;;;8.48;;
70169;SDS011;57543;45.442;9.212;2023-02-28T09:00:14;13.45;;;8.38;;
70169;SDS011;57543;45.442;9.212;2023-02-28T09:03:19;15.20;;;8.30;;
70169;SDS011;57543;45.442;9.212;2023-02-28T09:06:25;15.47;;;8.30;;
70169;SDS011;57543;45.442;9.212;2023-02-28T09:09:30;17.88;;;8.80;;
70169;SDS011;57543;45.442;9.212;2023-02-28T09:12:34;15.45;;;8.07;;
70169;SDS011;57543;45.442;9.212;2023-02-28T09:15:39;13.48;;;7.28;;
70169;SDS011;57543;45.442;9.212;2023-02-28T09:18:43;14.00;;;7.88;;
70169;SDS011;57543;45.442;9.212;2023-02-28T09:21:47;14.23;;;7.87;;
70169;SDS011;57543;45.442;9.212;2023-02-28T09:24:51;14.45;;;8.57;;
70169;SDS011;57543;45.442;9.212;2023-02-28T09:27:55;15.40;;;8.43;;
70169;SDS011;57543;45.442;9.212;2023-02-28T09:30:58;17.60;;;8.80;;
70169;SDS011;57543;45.442;9.212;2023-02-28T09:34:07;16.58;;;8.48;;
70169;SDS011;57543;45.442;9.212;2023-02-28T09:37:11;14.30;;;7.97;;
70169;SDS011;57543;45.442;9.212;2023-02-28T09:40:15;17.25;;;8.25;;
70169;SDS011;57543;45.442;9.212;2023-02-28T09:43:21;13.57;;;8.18;;
70169;SDS011;57543;45.442;9.212;2023-02-28T09:46:39;15.77;;;8.18;;
70169;SDS011;57543;45.442;9.212;2023-02-28T09:49:47;16.17;;;8.10;;
70169;SDS011;57543;45.442;9.212;2023-02-28T09:52:51;14.27;;;8.60;;
70169;SDS011;57543;45.442;9.212;2023-02-28T09:56:18;14.65;;;8.30;;
70169;SDS011;57543;45.442;9.212;2023-02-28T09:59:36;16.63;;;8.40;;
70169;SDS011;57543;45.442;9.212;2023-02-28T10:06:22;18.50;;;8.38;;
70169;SDS011;57543;45.442;9.212;2023-02-28T10:09:31;15.63;;;8.27;;
70169;SDS011;57543;45.442;9.212;2023-02-28T10:12:44;14.75;;;8.50;;
70169;SDS011;57543;45.442;9.212;2023-02-28T10:15:51;21.40;;;8.20;;
70169;SDS011;57543;45.442;9.212;2023-02-28T10:22:52;14.40;;;8.00;;
70169;SDS011;57543;45.442;9.212;2023-02-28T10:26:00;18.40;;;8.27;;
70169;SDS011;57543;45.442;9.212;2023-02-28T10:29:11;15.70;;;8.35;;
70169;SDS011;57543;45.442;9.212;2023-02-28T10:32:17;16.38;;;8.30;;
70169;SDS011;57543;45.442;9.212;2023-02-28T10:35:26;16.30;;;8.50;;
70169;SDS011;57543;45.442;9.212;2023-02-28T10:38:34;15.00;;;7.78;;
70169;SDS011;57543;45.442;9.212;2023-02-28T10:41:42;15.70;;;8.63;;
70169;SDS011;57543;45.442;9.212;2023-02-28T10:44:46;15.20;;;8.38;;
70169;SDS011;57543;45.442;9.212;2023-02-28T10:51:01;15.68;;;9.00;;
70169;SDS011;57543;45.442;9.212;2023-02-28T10:54:22;16.00;;;8.05;;
70169;SDS011;57543;45.442;9.212;2023-02-28T10:57:38;18.30;;;9.47;;
70169;SDS011;57543;45.442;9.212;2023-02-28T11:00:41;12.43;;;7.47;;
70169;SDS011;57543;45.442;9.212;2023-02-28T11:03:45;15.93;;;8.52;;
70169;SDS011;57543;45.442;9.212;2023-02-28T11:06:57;16.25;;;9.27;;
70169;SDS011;57543;45.442;9.212;2023-02-28T11:10:02;15.75;;;9.00;;
70169;SDS011;57543;45.442;9.212;2023-02-28T11:13:12;18.90;;;9.00;;
70169;SDS011;57543;45.442;9.212;2023-02-28T11:16:21;16.45;;;9.15;;
70169;SDS011;57543;45.442;9.212;2023-02-28T11:19:46;16.92;;;8.90;;
70169;SDS011;57543;45.442;9.212;2023-02-28T11:22:56;18.20;;;9.40;;
70169;SDS011;57543;45.442;9.212;2023-02-28T11:26:02;19.58;;;9.52;;
70169;SDS011;57543;45.442;9.212;2023-02-28T11:29:24;16.57;;;9.47;;
70169;SDS011;57543;45.442;9.212;2023-02-28T11:32:30;16.77;;;9.18;;
70169;SDS011;57543;45.442;9.212;2023-02-28T11:35:38;16.25;;;8.95;;
70169;SDS011;57543;45.442;9.212;2023-02-28T11:38:43;17.38;;;10.00;;
70169;SDS011;57543;45.442;9.212;2023-02-28T11:42:03;17.65;;;9.88;;
70169;SDS011;57543;45.442;9.212;2023-02-28T11:45:26;15.87;;;9.10;;
70169;SDS011;57543;45.442;9.212;2023-02-28T11:48:53;16.45;;;9.52;;
70169;SDS011;57543;45.442;9.212;2023-02-28T11:55:37;16.30;;;9.75;;
70169;SDS011;57543;45.442;9.212;2023-02-28T11:58:59;16.05;;;9.98;;
70169;SDS011;57543;45.442;9.212;2023-02-28T12:12:48;18.50;;;11.02;;
70169;SDS011;57543;45.442;9.212;2023-02-28T12:19:10;18.93;;;11.27;;
70169;SDS011;57543;45.442;9.212;2023-02-28T12:29:30;19.88;;;11.50;;
70169;SDS011;57543;45.442;9.212;2023-02-28T12:32:39;17.35;;;10.63;;
70169;SDS011;57543;45.442;9.212;2023-02-28T12:35:56;20.27;;;11.30;;
70169;SDS011;57543;45.442;9.212;2023-02-28T12:39:08;19.00;;;11.20;;
70169;SDS011;57543;45.442;9.212;2023-02-28T12:42:24;19.05;;;10.55;;
70169;SDS011;57543;45.442;9.212;2023-02-28T12:45:39;18.77;;;11.15;;
70169;SDS011;57543;45.442;9.212;2023-02-28T12:48:58;20.73;;;11.20;;
70169;SDS011;57543;45.442;9.212;2023-02-28T12:52:07;18.67;;;10.80;;
70169;SDS011;57543;45.442;9.212;2023-02-28T12:55:40;19.60;;;11.65;;
70169;SDS011;57543;45.442;9.212;2023-02-28T12:58:41;19.10;;;11.27;;
70169;SDS011;57543;45.442;9.212;2023-02-28T13:01:57;21.40;;;12.55;;
70169;SDS011;57543;45.442;9.212;2023-02-28T13:05:27;21.17;;;12.10;;
70169;SDS011;57543;45.442;9.212;2023-02-28T13:09:09;19.80;;;11.47;;
70169;SDS011;57543;45.442;9.212;2023-02-28T13:12:16;20.73;;;12.13;;
70169;SDS011;57543;45.442;9.212;2023-02-28T13:21:42;20.45;;;12.05;;
70169;SDS011;57543;45.442;9.212;2023-02-28T13:24:49;21.20;;;11.87;;
70169;SDS011;57543;45.442;9.212;2023-02-28T13:27:54;22.50;;;11.77;;
70169;SDS011;57543;45.442;9.212;2023-02-28T13:31:04;21.65;;;11.68;;
70169;SDS011;57543;45.442;9.212;2023-02-28T13:34:13;21.88;;;12.48;;
70169;SDS011;57543;45.442;9.212;2023-02-28T13:40:29;21.00;;;12.43;;
70169;SDS011;57543;45.442;9.212;2023-02-28T13:53:32;19.70;;;11.90;;
70169;SDS011;57543;45.442;9.212;2023-02-28T14:06:50;19.98;;;12.00;;
70169;SDS011;57543;45.442;9.212;2023-02-28T14:10:02;22.02;;;12.90;;
70169;SDS011;57543;45.442;9.212;2023-02-28T14:16:22;21.67;;;12.43;;
70169;SDS011;57543;45.442;9.212;2023-02-28T14:19:30;22.15;;;13.25;;
70169;SDS011;57543;45.442;9.212;2023-02-28T14:26:02;19.55;;;11.90;;
70169;SDS011;57543;45.442;9.212;2023-02-28T14:39:25;23.52;;;13.13;;
70169;SDS011;57543;45.442;9.212;2023-02-28T14:42:34;22.58;;;12.82;;
70169;SDS011;57543;45.442;9.212;2023-02-28T14:45:41;21.03;;;11.93;;
70169;SDS011;57543;45.442;9.212;2023-02-28T14:48:48;22.77;;;13.30;;
70169;SDS011;57543;45.442;9.212;2023-02-28T14:55:33;23.15;;;12.60;;
70169;SDS011;57543;45.442;9.212;2023-02-28T14:58:38;23.95;;;13.70;;
70169;SDS011;57543;45.442;9.212;2023-02-28T15:01:42;24.40;;;12.47;;
70169;SDS011;57543;45.442;9.212;2023-02-28T15:04:54;23.08;;;13.10;;
70169;SDS011;57543;45.442;9.212;2023-02-28T15:08:21;22.88;;;12.63;;
70169;SDS011;57543;45.442;9.212;2023-02-28T15:11:24;24.42;;;13.15;;
70169;SDS011;57543;45.442;9.212;2023-02-28T15:14:28;25.80;;;14.63;;
70169;SDS011;57543;45.442;9.212;2023-02-28T15:17:33;24.87;;;13.33;;
70169;SDS011;57543;45.442;9.212;2023-02-28T15:20:38;24.60;;;13.10;;
70169;SDS011;57543;45.442;9.212;2023-02-28T15:23:46;23.02;;;13.45;;
70169;SDS011;57543;45.442;9.212;2023-02-28T15:27:13;22.65;;;12.85;;
70169;SDS011;57543;45.442;9.212;2023-02-28T15:30:38;23.17;;;13.80;;
70169;SDS011;57543;45.442;9.212;2023-02-28T15:33:47;24.63;;;13.70;;
70169;SDS011;57543;45.442;9.212;2023-02-28T15:36:59;24.58;;;13.50;;
70169;SDS011;57543;45.442;9.212;2023-02-28T15:46:29;24.17;;;13.35;;
70169;SDS011;57543;45.442;9.212;2023-02-28T15:49:40;22.80;;;12.73;;
70169;SDS011;57543;45.442;9.212;2023-02-28T15:52:50;26.90;;;13.20;;
70169;SDS011;57543;45.442;9.212;2023-02-28T15:55:59;24.02;;;13.57;;
70169;SDS011;57543;45.442;9.212;2023-02-28T15:59:05;22.70;;;13.70;;
70169;SDS011;57543;45.442;9.212;2023-02-28T16:05:31;24.63;;;13.37;;
70169;SDS011;57543;45.442;9.212;2023-02-28T16:08:35;23.92;;;13.73;;
70169;SDS011;57543;45.442;9.212;2023-02-28T16:11:40;29.80;;;14.63;;
70169;SDS011;57543;45.442;9.212;2023-02-28T16:14:49;22.45;;;13.13;;
70169;SDS011;57543;45.442;9.212;2023-02-28T16:17:56;26.25;;;13.52;;
70169;SDS011;57543;45.442;9.212;2023-02-28T16:21:01;25.30;;;14.10;;
70169;SDS011;57543;45.442;9.212;2023-02-28T16:24:04;23.60;;;13.27;;
70169;SDS011;57543;45.442;9.212;2023-02-28T16:27:15;26.00;;;13.90;;
70169;SDS011;57543;45.442;9.212;2023-02-28T16:30:22;24.40;;;13.32;;
70169;SDS011;57543;45.442;9.212;2023-02-28T16:33:29;25.38;;;13.20;;
70169;SDS011;57543;45.442;9.212;2023-02-28T16:36:34;24.87;;;14.10;;
70169;SDS011;57543;45.442;9.212;2023-02-28T16:39:37;23.77;;;12.73;;
70169;SDS011;57543;45.442;9.212;2023-02-28T16:42:41;24.90;;;13.07;;
70169;SDS011;57543;45.442;9.212;2023-02-28T16:45:45;25.70;;;13.43;;
70169;SDS011;57543;45.442;9.212;2023-02-28T16:48:48;23.50;;;12.48;;
70169;SDS011;57543;45.442;9.212;2023-02-28T16:51:54;22.40;;;12.53;;
70169;SDS011;57543;45.442;9.212;2023-02-28T16:54:58;24.40;;;12.95;;
70169;SDS011;57543;45.442;9.212;2023-02-28T16:58:03;23.60;;;12.73;;
70169;SDS011;57543;45.442;9.212;2023-02-28T17:01:07;26.13;;;13.48;;
70169;SDS011;57543;45.442;9.212;2023-02-28T17:04:11;25.30;;;13.15;;
70169;SDS011;57543;45.442;9.212;2023-02-28T17:07:15;27.07;;;14.00;;
70169;SDS011;57543;45.442;9.212;2023-02-28T17:10:23;25.10;;;13.45;;
70169;SDS011;57543;45.442;9.212;2023-02-28T17:13:28;24.58;;;12.65;;
70169;SDS011;57543;45.442;9.212;2023-02-28T17:16:33;24.00;;;12.25;;
70169;SDS011;57543;45.442;9.212;2023-02-28T17:19:39;23.17;;;12.95;;
70169;SDS011;57543;45.442;9.212;2023-02-28T17:22:46;26.80;;;13.03;;
70169;SDS011;57543;45.442;9.212;2023-02-28T17:25:49;23.20;;;12.45;;
70169;SDS011;57543;45.442;9.212;2023-02-28T17:28:56;23.02;;;12.50;;
70169;SDS011;57543;45.442;9.212;2023-02-28T17:32:00;22.42;;;11.18;;
70169;SDS011;57543;45.442;9.212;2023-02-28T17:35:04;22.98;;;12.07;;
70169;SDS011;57543;45.442;9.212;2023-02-28T17:38:17;25.17;;;12.73;;
70169;SDS011;57543;45.442;9.212;2023-02-28T17:41:22;25.25;;;12.82;;
70169;SDS011;57543;45.442;9.212;2023-02-28T17:44:26;22.58;;;12.07;;
70169;SDS011;57543;45.442;9.212;2023-02-28T17:47:29;22.70;;;12.13;;
70169;SDS011;57543;45.442;9.212;2023-02-28T17:50:33;22.40;;;12.23;;
70169;SDS011;57543;45.442;9.212;2023-02-28T17:53:36;22.87;;;12.60;;
70169;SDS011;57543;45.442;9.212;2023-02-28T17:56:40;22.67;;;12.52;;
70169;SDS011;57543;45.442;9.212;2023-02-28T17:59:46;22.23;;;12.35;;
70169;SDS011;57543;45.442;9.212;2023-02-28T18:02:50;21.73;;;12.48;;
70169;SDS011;57543;45.442;9.212;2023-02-28T18:05:54;23.77;;;12.40;;
70169;SDS011;57543;45.442;9.212;2023-02-28T18:08:59;25.00;;;12.37;;
70169;SDS011;57543;45.442;9.212;2023-02-28T18:12:03;22.77;;;12.50;;
70169;SDS011;57543;45.442;9.212;2023-02-28T18:15:08;24.95;;;12.80;;
70169;SDS011;57543;45.442;9.212;2023-02-28T18:18:12;23.80;;;12.68;;
70169;SDS011;57543;45.442;9.212;2023-02-28T18:21:16;23.10;;;12.57;;
70169;SDS011;57543;45.442;9.212;2023-02-28T18:24:21;22.30;;;12.17;;
70169;SDS011;57543;45.442;9.212;2023-02-28T18:27:26;21.90;;;11.90;;
70169;SDS011;57543;45.442;9.212;2023-02-28T18:30:31;22.75;;;12.25;;
70169;SDS011;57543;45.442;9.212;2023-02-28T18:33:38;21.65;;;12.32;;
70169;SDS011;57543;45.442;9.212;2023-02-28T18:36:42;24.45;;;12.27;;
70169;SDS011;57543;45.442;9.212;2023-02-28T18:39:46;25.20;;;12.53;;
70169;SDS011;57543;45.442;9.212;2023-02-28T18:42:51;21.85;;;12.35;;
70169;SDS011;57543;45.442;9.212;2023-02-28T18:45:54;22.75;;;11.88;;
70169;SDS011;57543;45.442;9.212;2023-02-28T18:48:59;23.95;;;12.85;;
70169;SDS011;57543;45.442;9.212;2023-02-28T18:52:03;23.35;;;12.13;;
70169;SDS011;57543;45.442;9.212;2023-02-28T18:55:09;23.10;;;12.33;;
70169;SDS011;57543;45.442;9.212;2023-02-28T18:58:13;25.17;;;13.00;;
70169;SDS011;57543;45.442;9.212;2023-02-28T19:01:18;22.58;;;12.27;;
70169;SDS011;57543;45.442;9.212;2023-02-28T19:04:23;23.85;;;12.20;;
70169;SDS011;57543;45.442;9.212;2023-02-28T19:07:27;22.48;;;12.30;;
70169;SDS011;57543;45.442;9.212;2023-02-28T19:10:31;23.73;;;12.90;;
70169;SDS011;57543;45.442;9.212;2023-02-28T19:13:35;24.42;;;12.77;;
70169;SDS011;57543;45.442;9.212;2023-02-28T19:16:40;24.83;;;12.85;;
70169;SDS011;57543;45.442;9.212;2023-02-28T19:19:44;25.83;;;12.90;;
70169;SDS011;57543;45.442;9.212;2023-02-28T19:22:47;22.92;;;12.50;;
70169;SDS011;57543;45.442;9.212;2023-02-28T19:25:51;23.67;;;12.03;;
70169;SDS011;57543;45.442;9.212;2023-02-28T19:28:55;24.92;;;13.05;;
70169;SDS011;57543;45.442;9.212;2023-02-28T19:31:59;25.13;;;13.43;;
70169;SDS011;57543;45.442;9.212;2023-02-28T19:35:03;26.85;;;13.40;;
70169;SDS011;57543;45.442;9.212;2023-02-28T19:38:08;26.38;;;12.88;;
70169;SDS011;57543;45.442;9.212;2023-02-28T19:41:12;24.03;;;12.70;;
70169;SDS011;57543;45.442;9.212;2023-02-28T19:44:20;25.17;;;13.02;;
70169;SDS011;57543;45.442;9.212;2023-02-28T19:47:23;25.33;;;13.10;;
70169;SDS011;57543;45.442;9.212;2023-02-28T19:50:27;25.52;;;12.90;;
70169;SDS011;57543;45.442;9.212;2023-02-28T19:53:31;27.17;;;13.82;;
70169;SDS011;57543;45.442;9.212;2023-02-28T19:56:36;25.13;;;12.40;;
70169;SDS011;57543;45.442;9.212;2023-02-28T19:59:39;28.13;;;13.95;;
70169;SDS011;57543;45.442;9.212;2023-02-28T20:02:43;22.83;;;12.05;;
70169;SDS011;57543;45.442;9.212;2023-02-28T20:05:47;24.55;;;13.02;;
70169;SDS011;57543;45.442;9.212;2023-02-28T20:09:05;22.52;;;12.02;;
70169;SDS011;57543;45.442;9.212;2023-02-28T20:12:09;25.43;;;12.60;;
70169;SDS011;57543;45.442;9.212;2023-02-28T20:15:12;24.13;;;12.65;;
70169;SDS011;57543;45.442;9.212;2023-02-28T20:18:16;24.80;;;12.55;;